createdAt,value
2018-01-30T00:01:00.804Z,3.30
2018-01-30T00:03:29.125Z,2.93
2018-01-30T00:05:57.675Z,4.50
2018-01-30T00:08:26.029Z,3.67
2018-01-30T00:10:54.353Z,3.42
2018-01-30T00:13:22.702Z,3.17
2018-01-30T00:15:51.484Z,3.05
2018-01-30T00:18:19.811Z,3.03
2018-01-30T00:20:48.879Z,2.90
2018-01-30T00:23:17.252Z,3.37
2018-01-30T00:25:45.549Z,3.58
2018-01-30T00:28:13.866Z,2.85
2018-01-30T00:30:42.997Z,4.03
2018-01-30T00:33:11.314Z,2.80
2018-01-30T00:35:40.384Z,2.72
2018-01-30T00:38:09.024Z,2.20
2018-01-30T00:40:37.329Z,2.78
2018-01-30T00:43:05.624Z,2.55
2018-01-30T00:45:33.948Z,3.15
2018-01-30T00:48:03.044Z,2.78
2018-01-30T00:50:32.105Z,3.90
2018-01-30T00:53:00.927Z,2.77
2018-01-30T00:55:29.237Z,3.20
2018-01-30T00:57:57.585Z,2.90
2018-01-30T01:00:27.102Z,2.70
2018-01-30T01:02:55.507Z,4.43
2018-01-30T01:05:23.804Z,3.17
2018-01-30T01:07:52.151Z,3.00
2018-01-30T01:10:20.472Z,3.72
2018-01-30T01:12:48.786Z,2.70
2018-01-30T01:15:17.168Z,2.87
2018-01-30T01:17:45.496Z,3.50
2018-01-30T01:20:13.820Z,2.85
2018-01-30T01:22:42.357Z,2.95
2018-01-30T01:25:10.662Z,2.70
2018-01-30T01:27:38.968Z,2.70
2018-01-30T01:30:07.555Z,2.80
2018-01-30T01:32:35.861Z,2.65
2018-01-30T01:35:04.183Z,2.62
2018-01-30T01:37:33.336Z,2.60
2018-01-30T01:40:01.672Z,2.78
2018-01-30T01:42:29.993Z,3.17
2018-01-30T01:44:58.510Z,3.40
2018-01-30T01:47:26.816Z,3.62
2018-01-30T01:49:55.928Z,3.33
2018-01-30T01:52:24.259Z,2.42
2018-01-30T01:54:52.576Z,3.53
2018-01-30T01:57:20.921Z,2.30
2018-01-30T01:59:49.272Z,3.22
2018-01-30T02:02:17.590Z,2.97
2018-01-30T02:04:46.666Z,4.55
2018-01-30T02:07:15.803Z,2.72
2018-01-30T02:09:44.112Z,2.62
2018-01-30T02:12:12.417Z,2.75
2018-01-30T02:14:40.752Z,2.67
2018-01-30T02:17:09.080Z,3.95
2018-01-30T02:19:37.419Z,3.92
2018-01-30T02:22:05.756Z,2.28
2018-01-30T02:24:34.859Z,2.35
2018-01-30T02:27:04.000Z,2.25
2018-01-30T02:29:32.619Z,2.80
2018-01-30T02:32:01.017Z,2.45
2018-01-30T02:34:29.344Z,2.58
2018-01-30T02:36:57.665Z,2.40
2018-01-30T02:39:25.969Z,2.85
2018-01-30T02:41:55.060Z,2.40
2018-01-30T02:44:23.884Z,2.65
2018-01-30T02:46:52.220Z,2.80
2018-01-30T02:49:20.611Z,2.67
2018-01-30T02:51:49.633Z,2.25
2018-01-30T02:54:17.940Z,3.70
2018-01-30T02:56:47.016Z,2.25
2018-01-30T02:59:15.360Z,3.75
2018-01-30T03:01:43.679Z,2.53
2018-01-30T03:04:12.032Z,2.60
2018-01-30T03:06:40.370Z,3.12
2018-01-30T03:09:08.739Z,3.15
2018-01-30T03:11:37.080Z,3.37
2018-01-30T03:14:06.787Z,3.30
2018-01-30T03:16:35.128Z,2.47
2018-01-30T03:19:03.574Z,3.30
2018-01-30T03:21:33.180Z,2.97
2018-01-30T03:24:02.459Z,2.25
2018-01-30T03:26:30.836Z,2.90
2018-01-30T03:28:59.243Z,2.40
2018-01-30T03:31:27.587Z,3.15
2018-01-30T03:33:55.897Z,2.80
2018-01-30T03:36:25.187Z,3.65
2018-01-30T03:38:54.276Z,2.50
2018-01-30T03:41:23.386Z,3.37
2018-01-30T03:43:52.562Z,2.97
2018-01-30T03:46:20.876Z,3.28
2018-01-30T03:48:49.207Z,2.50
2018-01-30T03:51:17.641Z,3.33
2018-01-30T03:53:45.987Z,2.70
2018-01-30T03:56:14.311Z,3.58
2018-01-30T03:58:43.276Z,2.90
2018-01-30T04:01:12.409Z,2.60
2018-01-30T04:03:40.793Z,2.58
2018-01-30T04:06:09.188Z,3.15
2018-01-30T04:08:37.557Z,2.83
2018-01-30T04:11:05.865Z,2.37
2018-01-30T04:13:34.277Z,2.33
2018-01-30T04:16:02.635Z,2.70
2018-01-30T04:18:31.302Z,2.80
2018-01-30T04:20:59.948Z,3.08
2018-01-30T04:23:28.252Z,3.35
2018-01-30T04:25:56.691Z,2.30
2018-01-30T04:28:25.061Z,2.50
2018-01-30T04:30:53.425Z,2.72
2018-01-30T04:33:22.612Z,3.03
2018-01-30T04:35:51.232Z,2.97
2018-01-30T04:38:19.564Z,2.37
2018-01-30T04:40:48.002Z,2.65
2018-01-30T04:43:17.052Z,2.62
2018-01-30T04:45:45.402Z,2.95
2018-01-30T04:48:13.704Z,2.85
2018-01-30T04:50:42.079Z,2.45
2018-01-30T04:53:10.397Z,3.42
2018-01-30T04:55:38.759Z,3.42
2018-01-30T04:58:07.223Z,3.85
2018-01-30T05:00:35.705Z,3.12
2018-01-30T05:03:04.131Z,3.40
2018-01-30T05:05:32.891Z,2.78
2018-01-30T05:08:01.353Z,2.22
2018-01-30T05:10:29.736Z,3.12
2018-01-30T05:12:58.549Z,1.98
2018-01-30T05:15:26.927Z,3.35
2018-01-30T05:17:56.008Z,2.60
2018-01-30T05:20:25.126Z,3.28
2018-01-30T05:22:53.482Z,3.60
2018-01-30T05:25:21.790Z,2.90
2018-01-30T05:27:50.217Z,3.33
2018-01-30T05:30:18.520Z,3.72
2018-01-30T05:32:46.847Z,3.20
2018-01-30T05:35:15.191Z,3.97
2018-01-30T05:37:44.390Z,3.20
2018-01-30T05:40:12.706Z,4.32
2018-01-30T05:42:41.047Z,3.05
2018-01-30T05:45:10.135Z,3.28
2018-01-30T05:47:39.260Z,3.20
2018-01-30T05:50:08.689Z,3.83
2018-01-30T05:52:36.995Z,4.53
2018-01-30T05:55:05.391Z,2.60
2018-01-30T05:57:34.512Z,3.83
2018-01-30T06:00:02.855Z,3.17
2018-01-30T06:02:31.200Z,4.45
2018-01-30T06:04:59.569Z,3.70
2018-01-30T06:07:27.895Z,4.20
2018-01-30T06:09:56.222Z,4.03
2018-01-30T06:12:24.669Z,4.87
2018-01-30T06:14:52.981Z,3.40
2018-01-30T06:17:21.292Z,2.35
2018-01-30T06:19:49.846Z,3.42
2018-01-30T06:22:18.160Z,3.25
2018-01-30T06:24:46.462Z,3.78
2018-01-30T06:27:15.601Z,3.37
2018-01-30T06:29:43.909Z,3.95
2018-01-30T06:32:12.215Z,4.22
2018-01-30T06:34:41.928Z,3.30
2018-01-30T06:37:11.059Z,3.53
2018-01-30T06:39:39.404Z,4.43
2018-01-30T06:42:08.523Z,5.82
2018-01-30T06:44:36.917Z,4.05
2018-01-30T06:47:05.283Z,5.70
2018-01-30T06:49:34.384Z,4.20
2018-01-30T06:52:02.791Z,3.70
2018-01-30T06:54:31.084Z,3.37
2018-01-30T06:56:59.652Z,3.25
2018-01-30T06:59:28.055Z,1.85
2018-01-30T07:01:56.428Z,2.83
2018-01-30T07:04:24.781Z,2.45
2018-01-30T07:06:53.107Z,2.40
2018-01-30T07:09:22.175Z,2.45
2018-01-30T07:11:50.516Z,2.75
2018-01-30T07:14:18.852Z,2.25
2018-01-30T07:16:47.176Z,3.10
2018-01-30T07:19:16.010Z,2.25
2018-01-30T07:21:44.329Z,2.60
2018-01-30T07:24:12.715Z,3.28
2018-01-30T07:26:41.075Z,2.25
2018-01-30T07:29:09.389Z,3.25
2018-01-30T07:31:37.724Z,2.10
2018-01-30T07:34:06.863Z,2.30
2018-01-30T07:36:35.205Z,2.40
2018-01-30T07:39:03.649Z,1.75
2018-01-30T07:41:32.292Z,2.35
2018-01-30T07:44:00.618Z,1.60
2018-01-30T07:46:28.960Z,2.35
2018-01-30T07:48:57.321Z,3.33
2018-01-30T07:51:25.655Z,2.12
2018-01-30T07:53:54.042Z,2.20
2018-01-30T07:56:22.485Z,2.28
2018-01-30T07:58:50.828Z,2.42
2018-01-30T08:01:20.040Z,4.53
2018-01-30T08:03:48.653Z,3.07
2018-01-30T08:06:16.946Z,3.07
2018-01-30T08:08:45.356Z,4.00
2018-01-30T08:11:14.499Z,3.93
2018-01-30T08:13:42.807Z,3.67
2018-01-30T08:16:11.101Z,3.80
2018-01-30T08:18:40.312Z,3.30
2018-01-30T08:21:09.399Z,3.20
2018-01-30T08:23:37.741Z,3.30
2018-01-30T08:26:07.262Z,3.60
2018-01-30T08:28:35.615Z,3.57
2018-01-30T08:31:03.938Z,4.47
2018-01-30T08:33:32.280Z,6.40
2018-01-30T08:36:00.587Z,3.17
2018-01-30T08:38:28.904Z,5.20
2018-01-30T08:40:57.281Z,3.27
2018-01-30T08:43:25.597Z,2.97
2018-01-30T08:45:53.924Z,3.90
2018-01-30T08:48:22.604Z,3.97
2018-01-30T08:50:50.932Z,3.10
2018-01-30T08:53:19.256Z,3.90
2018-01-30T08:55:47.587Z,3.80
2018-01-30T08:58:15.907Z,3.20
2018-01-30T09:00:44.222Z,4.03
2018-01-30T09:03:12.561Z,5.37
2018-01-30T09:05:40.866Z,4.53
2018-01-30T09:08:09.953Z,3.70
2018-01-30T09:10:39.401Z,3.00
2018-01-30T09:13:07.711Z,3.70
2018-01-30T09:15:42.851Z,3.97
2018-01-30T09:18:11.191Z,4.30
2018-01-30T09:20:39.558Z,4.30
2018-01-30T09:23:08.288Z,4.50
2018-01-30T09:25:36.628Z,3.47
2018-01-30T09:28:04.960Z,4.67
2018-01-30T09:30:33.893Z,3.93
2018-01-30T09:33:02.196Z,3.87
2018-01-30T09:35:30.519Z,4.37
2018-01-30T09:37:58.841Z,4.00
2018-01-30T09:40:27.148Z,5.47
2018-01-30T09:42:55.585Z,5.50
2018-01-30T09:45:23.961Z,4.27
2018-01-30T09:47:52.283Z,5.00
2018-01-30T09:50:20.612Z,5.23
2018-01-30T09:52:49.218Z,3.70
2018-01-30T09:58:03.515Z,4.53
2018-01-30T10:00:31.966Z,4.30
2018-01-30T10:03:00.299Z,4.33
2018-01-30T10:05:28.664Z,4.07
2018-01-30T10:07:57.036Z,3.90
2018-01-30T10:10:25.355Z,4.50
2018-01-30T10:12:54.097Z,4.80
2018-01-30T10:15:22.423Z,4.40
2018-01-30T10:17:50.773Z,3.50
2018-01-30T10:20:19.124Z,3.90
2018-01-30T10:22:47.429Z,5.17
2018-01-30T10:25:15.731Z,3.57
2018-01-30T10:27:44.088Z,3.80
2018-01-30T10:30:12.422Z,3.90
2018-01-30T10:32:40.757Z,4.57
2018-01-30T10:35:10.249Z,4.37
2018-01-30T10:37:38.816Z,4.23
2018-01-30T10:40:07.130Z,3.30
2018-01-30T10:42:35.475Z,3.40
2018-01-30T10:45:03.797Z,3.50
2018-01-30T10:47:32.125Z,4.33
2018-01-30T10:50:00.488Z,4.50
2018-01-30T10:52:28.800Z,4.57
2018-01-30T10:54:57.893Z,3.70
2018-01-30T10:57:26.370Z,3.70
2018-01-30T10:59:54.683Z,3.90
2018-01-30T11:02:23.041Z,4.00
2018-01-30T11:04:51.429Z,4.60
2018-01-30T11:07:19.763Z,4.30
2018-01-30T11:09:48.114Z,4.30
2018-01-30T11:12:16.500Z,3.47
2018-01-30T11:14:44.825Z,3.93
2018-01-30T11:17:13.665Z,4.20
2018-01-30T11:19:42.362Z,3.40
2018-01-30T11:22:10.749Z,3.53
2018-01-30T11:24:39.093Z,3.47
2018-01-30T11:27:07.446Z,3.83
2018-01-30T11:29:35.821Z,3.67
2018-01-30T11:32:04.152Z,3.43
2018-01-30T11:34:32.509Z,3.60
2018-01-30T11:37:00.892Z,3.17
2018-01-30T11:39:29.199Z,3.03
2018-01-30T11:41:57.923Z,3.43
2018-01-30T11:44:26.264Z,5.07
2018-01-30T11:46:54.636Z,4.30
2018-01-30T11:49:23.020Z,3.77
2018-01-30T11:51:51.431Z,3.97
2018-01-30T11:54:19.751Z,3.30
2018-01-30T11:56:48.875Z,3.20
2018-01-30T11:59:17.200Z,3.40
2018-01-30T12:01:46.343Z,3.80
2018-01-30T12:04:15.005Z,3.97
2018-01-30T12:06:44.110Z,3.10
2018-01-30T12:09:12.434Z,3.07
2018-01-30T12:11:40.752Z,3.40
2018-01-30T12:14:09.884Z,3.40
2018-01-30T12:16:38.212Z,3.30
2018-01-30T12:19:06.568Z,2.60
2018-01-30T12:21:34.928Z,3.30
2018-01-30T12:24:03.330Z,3.40
2018-01-30T12:26:32.062Z,3.00
2018-01-30T12:29:01.133Z,2.90
2018-01-30T12:31:29.468Z,2.60
2018-01-30T12:33:57.840Z,2.93
2018-01-30T12:36:26.160Z,3.30
2018-01-30T12:38:54.476Z,3.40
2018-01-30T12:41:22.892Z,2.77
2018-01-30T12:43:51.992Z,3.63
2018-01-30T12:46:20.337Z,3.90
2018-01-30T12:48:49.087Z,4.60
2018-01-30T12:51:17.413Z,3.87
2018-01-30T12:53:45.730Z,3.30
2018-01-30T12:56:14.088Z,3.40
2018-01-30T12:58:42.490Z,3.97
2018-01-30T13:01:10.821Z,3.10
2018-01-30T13:03:39.193Z,4.30
2018-01-30T13:06:07.544Z,3.93
2018-01-30T13:08:36.625Z,2.80
2018-01-30T13:11:05.325Z,3.37
2018-01-30T13:13:33.778Z,2.80
2018-01-30T13:16:02.137Z,3.20
2018-01-30T13:18:30.483Z,2.67
2018-01-30T13:20:58.892Z,3.40
2018-01-30T13:23:27.220Z,2.83
2018-01-30T13:25:55.560Z,2.40
2018-01-30T13:28:24.645Z,2.70
2018-01-30T13:30:52.969Z,2.70
2018-01-30T13:33:21.547Z,2.73
2018-01-30T13:35:49.881Z,2.53
2018-01-30T13:38:18.200Z,2.30
2018-01-30T13:40:46.531Z,2.10
2018-01-30T13:43:14.910Z,2.73
2018-01-30T13:45:43.236Z,1.90
2018-01-30T13:48:11.606Z,2.63
2018-01-30T13:50:39.958Z,3.60
2018-01-30T13:53:08.290Z,3.20
2018-01-30T13:55:37.898Z,2.97
2018-01-30T13:58:07.036Z,2.70
2018-01-30T14:00:36.481Z,2.97
2018-01-30T14:03:04.849Z,2.33
2018-01-30T14:05:33.194Z,2.93
2018-01-30T14:08:01.502Z,3.00
2018-01-30T14:10:29.864Z,3.33
2018-01-30T14:12:58.578Z,3.03
2018-01-30T14:15:27.559Z,2.10
2018-01-30T14:17:56.719Z,3.10
2018-01-30T14:20:24.992Z,2.80
2018-01-30T14:22:53.282Z,3.37
2018-01-30T14:25:21.771Z,2.83
2018-01-30T14:27:50.099Z,2.30
2018-01-30T14:30:18.530Z,2.77
2018-01-30T14:32:46.882Z,2.23
2018-01-30T14:35:15.967Z,3.17
2018-01-30T14:37:45.081Z,3.10
2018-01-30T14:40:13.833Z,2.90
2018-01-30T14:42:42.139Z,2.90
2018-01-30T14:45:11.210Z,2.83
2018-01-30T14:47:39.533Z,3.90
2018-01-30T14:50:07.837Z,3.07
2018-01-30T14:52:36.133Z,3.50
2018-01-30T14:55:04.476Z,3.33
2018-01-30T14:57:32.820Z,4.20
2018-01-30T15:00:01.925Z,3.33
2018-01-30T15:02:31.300Z,2.87
2018-01-30T15:04:59.631Z,3.10
2018-01-30T15:07:27.987Z,3.87
2018-01-30T15:09:56.337Z,3.10
2018-01-30T15:12:24.764Z,3.40
2018-01-30T15:14:53.084Z,2.93
2018-01-30T15:17:21.465Z,3.50
2018-01-30T15:19:49.836Z,2.70
2018-01-30T15:22:18.143Z,3.17
2018-01-30T15:24:47.540Z,3.30
2018-01-30T15:27:16.659Z,2.90
2018-01-30T15:29:44.988Z,3.50
2018-01-30T15:32:13.334Z,3.47
2018-01-30T15:34:41.639Z,3.70
2018-01-30T15:37:09.971Z,3.63
2018-01-30T15:39:38.312Z,3.30
2018-01-30T15:42:06.624Z,3.53
2018-01-30T15:44:35.704Z,3.57
2018-01-30T15:47:04.754Z,4.27
2018-01-30T15:49:33.067Z,3.40
2018-01-30T15:52:01.367Z,3.90
2018-01-30T15:54:30.452Z,3.80
2018-01-30T15:56:59.144Z,3.93
2018-01-30T15:59:28.256Z,4.10
2018-01-30T16:01:56.612Z,3.90
2018-01-30T16:04:24.934Z,3.93
2018-01-30T16:06:53.252Z,3.70
2018-01-30T16:09:22.067Z,3.70
2018-01-30T16:11:51.163Z,3.57
2018-01-30T16:14:19.681Z,4.13
2018-01-30T16:16:48.134Z,4.73
2018-01-30T16:19:16.424Z,4.80
2018-01-30T16:21:44.813Z,3.00
2018-01-30T16:24:13.143Z,4.27
2018-01-30T16:26:41.453Z,3.53
2018-01-30T16:29:10.535Z,3.50
2018-01-30T16:31:39.266Z,3.17
2018-01-30T16:34:07.625Z,2.90
2018-01-30T16:36:35.955Z,3.77
2018-01-30T16:39:04.296Z,3.20
2018-01-30T16:41:32.632Z,3.00
2018-01-30T16:44:00.964Z,3.10
2018-01-30T16:46:29.326Z,3.77
2018-01-30T16:48:57.665Z,2.87
2018-01-30T16:51:25.986Z,3.10
2018-01-30T16:53:54.441Z,3.23
2018-01-30T16:56:22.772Z,3.70
2018-01-30T16:58:51.423Z,3.33
2018-01-30T17:01:19.781Z,3.93
2018-01-30T17:03:48.106Z,4.00
2018-01-30T17:06:16.459Z,3.37
2018-01-30T17:08:44.808Z,3.70
2018-01-30T17:11:13.151Z,3.50
2018-01-30T17:13:41.484Z,4.20
2018-01-30T17:16:10.163Z,3.77
2018-01-30T17:18:39.272Z,3.90
2018-01-30T17:21:07.604Z,4.20
2018-01-30T17:23:36.159Z,4.67
2018-01-30T17:26:04.476Z,5.10
2018-01-30T17:28:33.328Z,6.40
2018-01-30T17:31:01.683Z,5.07
2018-01-30T17:33:29.989Z,5.17
2018-01-30T17:35:58.320Z,5.03
2018-01-30T17:38:26.890Z,5.50
2018-01-30T17:40:55.232Z,5.00
2018-01-30T17:43:23.581Z,5.07
2018-01-30T17:45:51.942Z,6.30
2018-01-30T17:48:20.407Z,5.33
2018-01-30T17:50:49.620Z,6.93
2018-01-30T17:53:18.003Z,5.20
2018-01-30T17:55:47.078Z,6.10
2018-01-30T17:58:16.178Z,5.40
2018-01-30T18:00:45.020Z,4.77
2018-01-30T18:03:13.335Z,5.00
2018-01-30T18:05:41.665Z,4.80
2018-01-30T18:08:10.011Z,5.03
2018-01-30T18:10:39.116Z,5.90
2018-01-30T18:13:07.472Z,5.90
2018-01-30T18:15:35.809Z,5.30
2018-01-30T18:18:04.184Z,5.70
2018-01-30T18:20:32.503Z,6.37
2018-01-30T18:23:01.079Z,4.32
2018-01-30T18:25:29.415Z,6.23
2018-01-30T18:27:57.721Z,6.50
2018-01-30T18:30:26.075Z,5.55
2018-01-30T18:32:54.479Z,5.20
2018-01-30T18:35:23.568Z,4.68
2018-01-30T18:37:52.693Z,5.85
2018-01-30T18:40:21.014Z,5.35
2018-01-30T18:42:49.409Z,5.25
2018-01-30T18:45:18.063Z,6.47
2018-01-30T18:47:46.388Z,5.82
2018-01-30T18:50:14.726Z,5.50
2018-01-30T18:52:43.991Z,5.35
2018-01-30T18:55:12.303Z,5.30
2018-01-30T18:57:40.630Z,5.55
2018-01-30T19:00:08.993Z,5.53
2018-01-30T19:02:37.336Z,7.57
2018-01-30T19:05:05.680Z,6.82
2018-01-30T19:07:34.510Z,6.62
2018-01-30T19:10:02.830Z,7.40
2018-01-30T19:12:31.176Z,7.12
2018-01-30T19:14:59.899Z,7.80
2018-01-30T19:17:28.323Z,7.20
2018-01-30T19:19:56.663Z,8.15
2018-01-30T19:22:25.120Z,8.40
2018-01-30T19:24:53.447Z,7.60
2018-01-30T19:27:21.802Z,6.53
2018-01-30T19:29:50.384Z,7.62
2018-01-30T19:32:18.717Z,6.93
2018-01-30T19:34:47.013Z,6.62
2018-01-30T19:37:15.369Z,7.70
2018-01-30T19:39:43.836Z,7.20
2018-01-30T19:42:12.907Z,7.62
2018-01-30T19:44:41.251Z,7.30
2018-01-30T19:47:09.588Z,6.45
2018-01-30T19:49:38.674Z,7.45
2018-01-30T19:52:07.491Z,7.78
2018-01-30T19:54:35.823Z,7.55
2018-01-30T19:57:04.175Z,7.90
2018-01-30T19:59:32.517Z,7.72
2018-01-30T20:02:00.836Z,8.05
2018-01-30T20:04:29.146Z,8.82
2018-01-30T20:06:57.505Z,7.75
2018-01-30T20:09:25.846Z,8.23
2018-01-30T20:11:54.244Z,8.85
2018-01-30T20:14:23.009Z,9.10
2018-01-30T20:16:51.344Z,8.75
2018-01-30T20:19:19.724Z,8.32
2018-01-30T20:21:48.051Z,7.65
2018-01-30T20:24:16.533Z,8.85
2018-01-30T20:26:45.756Z,8.82
2018-01-30T20:29:14.136Z,9.15
2018-01-30T20:31:42.441Z,9.25
2018-01-30T20:34:10.884Z,8.25
2018-01-30T20:36:39.386Z,9.15
2018-01-30T20:39:09.517Z,9.70
2018-01-30T20:41:37.901Z,8.98
2018-01-30T20:44:06.288Z,8.63
2018-01-30T20:46:34.631Z,9.40
2018-01-30T20:49:02.951Z,8.95
2018-01-30T20:51:31.339Z,10.40
2018-01-30T20:53:59.842Z,9.90
2018-01-30T20:56:28.217Z,8.93
2018-01-30T20:58:57.119Z,10.75
2018-01-30T21:01:25.482Z,11.48
2018-01-30T21:03:54.590Z,10.30
2018-01-30T21:06:23.718Z,10.95
2018-01-30T21:08:52.078Z,10.32
2018-01-30T21:11:20.392Z,11.57
2018-01-30T21:13:50.410Z,12.30
2018-01-30T21:16:19.635Z,12.55
2018-01-30T21:18:47.961Z,12.57
2018-01-30T21:21:16.628Z,12.45
2018-01-30T21:23:45.095Z,11.20
2018-01-30T21:26:14.203Z,11.38
2018-01-30T21:28:42.757Z,13.10
2018-01-30T21:31:11.291Z,12.48
2018-01-30T21:33:39.629Z,12.25
2018-01-30T21:36:08.756Z,14.45
2018-01-30T21:38:37.094Z,14.23
2018-01-30T21:41:05.405Z,15.13
2018-01-30T21:43:34.215Z,14.63
2018-01-30T21:46:02.535Z,15.40
2018-01-30T21:48:30.843Z,15.43
2018-01-30T21:50:59.165Z,16.12
2018-01-30T21:53:27.487Z,18.00
2018-01-30T21:55:56.683Z,18.65
2018-01-30T21:58:25.018Z,19.37
2018-01-30T22:00:53.342Z,18.90
2018-01-30T22:03:22.454Z,20.80
2018-01-30T22:05:51.241Z,21.37
2018-01-30T22:08:19.552Z,22.83
2018-01-30T22:10:47.865Z,23.02
2018-01-30T22:13:16.207Z,22.33
2018-01-30T22:15:44.524Z,21.98
2018-01-30T22:18:12.874Z,22.67
2018-01-30T22:20:41.212Z,23.25
2018-01-30T22:23:09.524Z,23.65
2018-01-30T22:25:37.863Z,23.17
2018-01-30T22:28:07.180Z,25.37
2018-01-30T22:30:35.503Z,23.65
2018-01-30T22:33:03.837Z,25.52
2018-01-30T22:35:32.180Z,25.88
2018-01-30T22:38:00.528Z,25.92
2018-01-30T22:40:28.894Z,24.67
2018-01-30T22:42:57.272Z,25.55
2018-01-30T22:45:25.588Z,24.37
